Time;durP1;ratioP1;P1;durP2;ratioP2;P2;SDS_P1;SDS_P2;PMS_P1;PMS_P2;Temp;Humidity;BMP_temperature;BMP_pressure;BME280_temperature;BME280_humidity;BME280_pressure;Samples;Min_cycle;Max_cycle;Signal;HPM_P1;HPM_P2
2021/12/17 00:00:26;;;;;;;97.82;22.23;;;1.80;99.90;;;;;;4825438;29;20079;-92
2021/12/17 00:05:31;;;;;;;67.75;17.67;;;1.70;99.90;;;;;;4822303;29;20030;-92
2021/12/17 00:07:57;;;;;;;81.43;22.95;;;1.70;99.90;;;;;;4824078;29;20034;-92
2021/12/17 00:10:23;;;;;;;75.50;19.52;;;1.60;99.90;;;;;;4809733;29;20125;-93
2021/12/17 00:12:51;;;;;;;49.45;18.20;;;1.60;99.90;;;;;;4824465;29;20553;-94
2021/12/17 00:15:20;;;;;;;66.80;18.90;;;1.50;99.90;;;;;;4824449;29;20030;-91
2021/12/17 00:17:55;;;;;;;54.75;18.60;;;1.50;99.90;;;;;;4824576;29;20034;-93
2021/12/17 00:53:16;;;;;;;59.38;15.65;;;1.20;99.90;;;;;;4806143;29;20059;-94
2021/12/17 00:55:42;;;;;;;;;;;1.20;99.90;;;;;;4806783;29;20043;-93
2021/12/17 00:58:08;;;;;;;61.13;14.65;;;1.20;99.90;;;;;;4806112;29;19968;-93
2021/12/17 01:00:33;;;;;;;58.22;16.23;;;1.10;99.90;;;;;;4806812;29;20316;-93
2021/12/17 01:02:59;;;;;;;57.95;14.82;;;1.10;99.90;;;;;;4806500;29;20117;-93
2021/12/17 01:05:28;;;;;;;56.30;18.63;;;1.00;99.90;;;;;;4806363;29;20126;-92
2021/12/17 01:07:57;;;;;;;49.63;17.30;;;1.00;99.90;;;;;;4805917;29;20114;-93
2021/12/17 01:10:43;;;;;;;102.40;19.98;;;1.00;99.90;;;;;;4806157;29;20035;-92
2021/12/17 01:13:10;;;;;;;54.65;16.85;;;1.00;99.90;;;;;;4791119;29;20078;-94
2021/12/17 01:15:37;;;;;;;58.80;20.17;;;1.00;99.90;;;;;;4806366;29;20027;-94
2021/12/17 01:18:09;;;;;;;71.22;20.38;;;1.00;99.90;;;;;;4806395;29;20039;-94
2021/12/17 01:24:08;;;;;;;102.32;18.05;;;1.00;99.90;;;;;;4814171;29;20039;-93
2021/12/17 01:42:47;;;;;;;38.65;14.43;;;1.00;99.90;;;;;;4861097;29;20061;-93
2021/12/17 01:45:13;;;;;;;36.88;14.02;;;1.10;99.90;;;;;;4860681;29;20136;-95
2021/12/17 01:47:38;;;;;;;61.30;14.38;;;1.10;99.90;;;;;;4845456;29;20124;-94
2021/12/17 01:56:02;;;;;;;31.23;12.63;;;1.20;99.90;;;;;;4860838;29;20068;-93
2021/12/17 02:01:13;;;;;;;49.10;16.17;;;1.20;99.90;;;;;;4860776;29;20479;-95
2021/12/17 02:03:39;;;;;;;64.78;17.80;;;1.10;99.90;;;;;;4860842;29;20030;-94
2021/12/17 02:06:05;;;;;;;44.80;16.95;;;1.10;99.90;;;;;;4841630;29;20508;-95
2021/12/17 02:08:32;;;;;;;54.33;19.08;;;1.00;99.90;;;;;;4823696;29;20034;-92
2021/12/17 02:11:38;;;;;;;48.20;16.10;;;1.00;99.90;;;;;;4823227;29;20089;-94
2021/12/17 02:32:38;;;;;;;55.75;12.98;;;1.10;99.90;;;;;;4861600;29;20025;-93
2021/12/17 02:37:40;;;;;;;37.83;13.55;;;1.10;99.90;;;;;;4861727;29;20033;-92
2021/12/17 02:42:25;;;;;;;53.70;14.52;;;1.00;99.90;;;;;;4845003;29;20037;-93
2021/12/17 02:45:34;;;;;;;36.95;13.48;;;1.00;99.90;;;;;;4869158;29;20034;-93
2021/12/17 02:48:12;;;;;;;33.78;13.68;;;1.00;99.90;;;;;;4853062;29;20025;-92
2021/12/17 02:50:57;;;;;;;66.65;15.27;;;1.00;99.90;;;;;;4852731;29;20090;-94
2021/12/17 02:53:26;;;;;;;44.33;13.20;;;1.00;99.90;;;;;;4849659;29;20049;-95
2021/12/17 02:55:55;;;;;;;57.90;14.07;;;1.00;99.90;;;;;;4865897;29;20074;-93
2021/12/17 02:58:23;;;;;;;32.00;13.25;;;0.90;99.90;;;;;;4864867;29;20060;-92
2021/12/17 03:00:49;;;;;;;42.58;13.70;;;0.90;99.90;;;;;;4865044;29;20372;-92
2021/12/17 03:03:16;;;;;;;44.30;13.13;;;0.90;99.90;;;;;;4864515;29;20029;-94
2021/12/17 03:05:43;;;;;;;69.47;16.23;;;0.90;99.90;;;;;;4864250;29;20116;-91
2021/12/17 03:08:14;;;;;;;32.10;13.13;;;0.90;99.90;;;;;;4880638;29;20037;-92
2021/12/17 03:10:40;;;;;;;39.88;14.13;;;0.90;99.90;;;;;;4875623;29;20033;-92
2021/12/17 03:13:07;;;;;;;58.33;13.60;;;0.90;99.90;;;;;;4868307;29;20052;-91
2021/12/17 03:23:40;;;;;;;49.08;12.55;;;0.80;99.90;;;;;;4880900;29;20531;-94
2021/12/17 03:26:19;;;;;;;31.98;12.15;;;0.90;99.90;;;;;;4879366;29;20033;-91
2021/12/17 03:28:56;;;;;;;56.80;14.15;;;0.80;99.90;;;;;;4863678;29;20029;-93
2021/12/17 03:31:24;;;;;;;79.80;15.38;;;0.80;99.90;;;;;;4863756;29;20025;-91
2021/12/17 03:33:52;;;;;;;44.42;12.52;;;0.80;99.90;;;;;;4863375;29;20056;-91
2021/12/17 03:36:19;;;;;;;27.20;11.70;;;0.80;99.90;;;;;;4863137;29;20033;-93
2021/12/17 03:38:48;;;;;;;35.78;12.45;;;0.80;99.90;;;;;;4862861;29;20120;-90
2021/12/17 03:41:20;;;;;;;62.22;13.45;;;0.80;99.90;;;;;;4863101;29;20471;-93
2021/12/17 03:43:48;;;;;;;50.35;13.10;;;0.80;99.90;;;;;;4882029;29;20398;-92
2021/12/17 03:46:15;;;;;;;28.27;10.70;;;0.80;99.90;;;;;;4866603;29;20081;-93
2021/12/17 03:48:42;;;;;;;36.88;11.40;;;0.80;99.90;;;;;;4866222;29;20029;-93
2021/12/17 03:51:14;;;;;;;49.28;11.63;;;0.80;99.90;;;;;;4866405;29;20036;-93
2021/12/17 03:53:42;;;;;;;56.30;13.82;;;0.80;99.90;;;;;;4866084;29;20132;-94
2021/12/17 03:56:09;;;;;;;43.53;13.07;;;0.80;99.90;;;;;;4866294;29;20029;-91
2021/12/17 03:58:34;;;;;;;70.47;14.73;;;0.80;99.90;;;;;;4866179;29;20029;-93
2021/12/17 04:01:00;;;;;;;64.53;14.48;;;0.80;99.90;;;;;;4881575;29;20033;-93
2021/12/17 04:03:26;;;;;;;57.40;13.07;;;0.80;99.90;;;;;;4868938;29;20057;-92
2021/12/17 04:05:51;;;;;;;73.00;14.77;;;0.80;99.90;;;;;;4884411;29;20033;-92
2021/12/17 04:08:17;;;;;;;73.65;16.38;;;0.80;99.90;;;;;;4885863;29;20458;-93
2021/12/17 04:10:47;;;;;;;47.53;13.55;;;0.80;99.90;;;;;;4876176;29;20440;-90
2021/12/17 04:13:25;;;;;;;59.92;13.40;;;0.80;99.90;;;;;;4871011;29;20551;-94
2021/12/17 04:16:02;;;;;;;48.30;12.82;;;0.80;99.90;;;;;;4887344;29;20432;-92
2021/12/17 04:18:28;;;;;;;59.78;14.75;;;0.80;99.90;;;;;;4866483;29;20093;-92
2021/12/17 04:20:54;;;;;;;38.17;12.18;;;0.80;99.90;;;;;;4865786;29;20156;-93
2021/12/17 04:23:21;;;;;;;56.03;13.55;;;0.80;99.90;;;;;;4865373;29;20127;-92
2021/12/17 04:25:51;;;;;;;51.25;12.02;;;0.80;99.90;;;;;;4865794;29;20025;-91
2021/12/17 04:28:18;;;;;;;39.80;13.45;;;0.80;99.90;;;;;;4865808;29;20029;-94
2021/12/17 04:30:45;;;;;;;79.53;15.20;;;0.70;99.90;;;;;;4865377;29;20393;-93
2021/12/17 04:33:12;;;;;;;31.58;11.35;;;0.70;99.90;;;;;;4865061;29;20029;-92
2021/12/17 04:35:39;;;;;;;57.55;11.90;;;0.70;99.90;;;;;;4865926;29;20077;-91
2021/12/17 04:38:06;;;;;;;63.75;13.05;;;0.70;99.90;;;;;;4865899;29;20051;-91
2021/12/17 04:40:33;;;;;;;252.20;23.58;;;0.60;99.90;;;;;;4865919;29;20049;-92
2021/12/17 04:43:23;;;;;;;39.88;12.40;;;0.60;99.90;;;;;;4865681;29;20562;-92
2021/12/17 04:46:04;;;;;;;126.10;14.90;;;0.60;99.90;;;;;;4882510;29;20368;-93
2021/12/17 04:59:27;;;;;;;50.83;11.57;;;0.50;99.90;;;;;;4899507;29;20051;-93
2021/12/17 05:01:53;;;;;;;70.65;11.85;;;0.50;99.90;;;;;;4893752;29;20037;-91
2021/12/17 05:04:19;;;;;;;77.93;11.30;;;0.50;99.90;;;;;;4868253;29;20128;-91
2021/12/17 05:06:45;;;;;;;65.22;13.85;;;0.50;99.90;;;;;;4865299;29;20028;-93
2021/12/17 05:09:24;;;;;;;35.97;10.30;;;0.50;99.90;;;;;;4864931;29;20040;-92
2021/12/17 05:19:56;;;;;;;37.05;10.10;;;0.50;99.90;;;;;;4881536;29;20620;-93
2021/12/17 05:22:24;;;;;;;53.97;11.32;;;0.40;99.90;;;;;;4880264;29;20029;-93
2021/12/17 05:24:50;;;;;;;37.15;11.45;;;0.50;99.90;;;;;;4865178;29;20033;-93
2021/12/17 05:27:15;;;;;;;46.40;14.10;;;0.50;99.90;;;;;;4878784;29;20021;-93
2021/12/17 05:29:41;;;;;;;57.83;12.13;;;0.40;99.90;;;;;;4883692;29;20494;-93
2021/12/17 05:32:07;;;;;;;36.50;12.20;;;0.50;99.90;;;;;;4883203;29;20056;-92
2021/12/17 05:34:34;;;;;;;58.00;12.30;;;0.50;99.90;;;;;;4885399;29;20040;-93
2021/12/17 05:36:59;;;;;;;61.38;11.65;;;0.50;99.90;;;;;;4885577;29;20119;-92
2021/12/17 05:39:25;;;;;;;98.20;13.73;;;0.50;99.90;;;;;;4885541;29;20063;-94
2021/12/17 05:41:52;;;;;;;154.35;18.52;;;0.40;99.90;;;;;;4884631;29;20036;-94
2021/12/17 05:44:18;;;;;;;41.83;12.55;;;0.40;99.90;;;;;;4884217;29;20032;-94
2021/12/17 05:46:50;;;;;;;48.22;12.35;;;0.40;99.90;;;;;;4884110;29;20040;-94
2021/12/17 05:49:21;;;;;;;28.88;11.75;;;0.40;99.90;;;;;;4883834;29;20085;-94
2021/12/17 05:51:47;;;;;;;32.40;10.95;;;0.40;99.90;;;;;;4883692;29;20029;-91
2021/12/17 05:54:15;;;;;;;45.42;11.82;;;0.40;99.90;;;;;;4883525;29;20059;-91
2021/12/17 05:56:41;;;;;;;90.60;13.32;;;0.40;99.90;;;;;;4883489;29;20025;-93
2021/12/17 05:59:08;;;;;;;52.95;11.40;;;0.50;99.90;;;;;;4882947;29;20497;-93
2021/12/17 06:01:34;;;;;;;49.35;11.65;;;0.40;99.90;;;;;;4882838;29;20029;-91
2021/12/17 06:04:00;;;;;;;74.90;12.35;;;0.40;99.90;;;;;;4882621;29;20040;-90
2021/12/17 06:06:30;;;;;;;21.50;10.02;;;0.40;99.90;;;;;;4882336;29;20028;-91
2021/12/17 06:08:56;;;;;;;39.67;11.27;;;0.40;99.90;;;;;;4882785;29;20029;-92
2021/12/17 06:11:22;;;;;;;31.27;10.00;;;0.40;99.90;;;;;;4882465;29;20745;-91
2021/12/17 06:13:47;;;;;;;39.42;10.07;;;0.40;99.90;;;;;;4882407;29;20430;-92
2021/12/17 06:16:13;;;;;;;39.08;10.35;;;0.40;99.90;;;;;;4882898;29;20052;-91
2021/12/17 06:18:39;;;;;;;36.83;9.00;;;0.40;99.90;;;;;;4882511;29;20037;-92
2021/12/17 06:21:04;;;;;;;33.00;9.02;;;0.50;99.90;;;;;;4882545;29;20431;-93
2021/12/17 06:23:30;;;;;;;66.30;9.45;;;0.40;99.90;;;;;;4882489;29;20116;-93
2021/12/17 06:25:56;;;;;;;63.60;10.30;;;0.40;99.90;;;;;;4882463;29;20498;-91
2021/12/17 06:28:22;;;;;;;109.75;12.63;;;0.40;99.90;;;;;;4882389;29;20031;-93
2021/12/17 06:30:47;;;;;;;99.82;12.57;;;0.40;99.90;;;;;;4882139;29;20024;-92
2021/12/17 06:33:13;;;;;;;44.90;10.57;;;0.30;99.90;;;;;;4882286;29;20033;-93
2021/12/17 06:35:39;;;;;;;92.07;12.75;;;0.30;99.90;;;;;;4882009;29;20139;-92
2021/12/17 06:38:06;;;;;;;23.17;8.80;;;0.30;99.90;;;;;;4882423;29;20059;-91
2021/12/17 06:40:32;;;;;;;54.65;9.82;;;0.30;99.90;;;;;;4883212;29;20041;-95
2021/12/17 06:42:58;;;;;;;95.57;12.80;;;0.30;99.90;;;;;;4882382;29;20033;-93
2021/12/17 06:48:26;;;;;;;71.00;9.45;;;0.40;99.90;;;;;;4878186;29;20037;-93
2021/12/17 07:05:54;;;;;;;52.80;8.68;;;0.30;99.90;;;;;;4897904;29;20036;-93
2021/12/17 07:07:45;;;;;;;62.95;9.13;;;0.30;99.90;;;;;;4897994;29;20088;-92
2021/12/17 07:17:58;;;;;;;93.85;11.25;;;0.20;99.90;;;;;;4900388;29;20055;-93
2021/12/17 07:23:17;;;;;;;82.50;11.18;;;0.30;99.90;;;;;;4871149;29;20040;-91
2021/12/17 07:34:16;;;;;;;114.07;12.10;;;0.30;99.90;;;;;;4843724;29;20124;-94
2021/12/17 07:38:35;;;;;;;72.50;9.82;;;0.30;99.90;;;;;;4844169;29;20063;-90
2021/12/17 07:39:30;;;;;;;41.15;7.85;;;0.30;99.90;;;;;;4843243;29;20069;-90
2021/12/17 07:41:55;;;;;;;83.88;10.25;;;0.30;99.90;;;;;;4828504;29;20153;-92
2021/12/17 07:44:21;;;;;;;31.52;7.57;;;0.30;99.90;;;;;;4843738;29;20034;-92
2021/12/17 07:46:47;;;;;;;47.72;9.52;;;0.20;99.90;;;;;;4828226;29;20053;-92
2021/12/17 07:49:12;;;;;;;128.55;10.68;;;0.30;99.90;;;;;;4843826;29;20034;-92
2021/12/17 07:51:38;;;;;;;25.45;8.90;;;0.30;99.90;;;;;;4843801;29;20046;-91
2021/12/17 07:54:10;;;;;;;19.52;9.10;;;0.40;99.90;;;;;;4843656;29;20087;-91
2021/12/17 07:56:39;;;;;;;71.32;9.60;;;0.50;99.90;;;;;;4843469;29;20034;-91
2021/12/17 07:59:09;;;;;;;49.03;8.57;;;0.60;99.90;;;;;;4843724;29;20082;-90
2021/12/17 08:01:36;;;;;;;30.60;8.23;;;0.60;99.90;;;;;;4828670;29;20034;-92
2021/12/17 08:04:07;;;;;;;104.03;11.43;;;0.70;99.90;;;;;;4834809;29;20112;-93
2021/12/17 08:06:34;;;;;;;80.70;9.65;;;0.80;99.90;;;;;;4887347;29;20115;-93
2021/12/17 08:09:24;;;;;;;;;;;;;;;;;;;;;
2021/12/17 08:11:56;;;;;;;20.20;7.57;;;0.80;99.90;;;;;;4900828;29;20028;-91
2021/12/17 08:14:24;;;;;;;27.38;7.20;;;0.80;99.90;;;;;;4884844;29;20657;-92
2021/12/17 08:16:58;;;;;;;23.00;7.50;;;0.80;99.90;;;;;;4884651;29;20132;-92
2021/12/17 08:25:08;;;;;;;58.80;8.50;;;0.90;99.90;;;;;;4901491;29;20106;-92
2021/12/17 08:30:22;;;;;;;29.60;7.50;;;0.90;99.90;;;;;;4890967;29;20047;-90
2021/12/17 08:32:49;;;;;;;13.82;6.65;;;0.80;99.90;;;;;;4890768;29;20028;-93
2021/12/17 08:35:15;;;;;;;16.58;7.80;;;0.70;99.90;;;;;;4887415;29;20044;-91
2021/12/17 08:37:42;;;;;;;15.15;7.45;;;0.70;99.90;;;;;;4885027;29;20435;-90
2021/12/17 08:40:09;;;;;;;13.35;6.90;;;0.80;99.90;;;;;;4888326;29;20398;-92
2021/12/17 08:42:35;;;;;;;13.40;6.57;;;0.70;99.90;;;;;;4885818;29;20032;-92
2021/12/17 08:45:03;;;;;;;11.40;6.60;;;0.80;99.90;;;;;;4883009;29;20031;-93
2021/12/17 08:47:32;;;;;;;12.57;6.60;;;0.80;99.90;;;;;;4883380;29;20044;-93
2021/12/17 08:50:04;;;;;;;12.38;6.22;;;0.70;99.90;;;;;;4887560;29;20020;-92
2021/12/17 08:52:30;;;;;;;10.60;6.07;;;0.70;99.90;;;;;;4888141;29;20048;-94
2021/12/17 08:54:58;;;;;;;11.10;6.38;;;0.80;99.90;;;;;;4883757;29;20076;-92
2021/12/17 08:57:24;;;;;;;14.30;7.72;;;0.80;99.90;;;;;;4884588;29;20056;-93
2021/12/17 08:59:49;;;;;;;15.32;7.03;;;0.80;99.90;;;;;;4880449;29;20056;-93
2021/12/17 09:02:15;;;;;;;11.48;6.60;;;0.90;99.90;;;;;;4885908;29;20029;-95
2021/12/17 09:04:41;;;;;;;16.85;7.20;;;1.00;99.90;;;;;;4882760;29;20027;-94
2021/12/17 09:07:07;;;;;;;14.80;6.60;;;1.00;99.90;;;;;;4884050;29;20033;-93
2021/12/17 09:09:34;;;;;;;20.02;9.38;;;1.00;99.90;;;;;;4882003;29;20116;-93
2021/12/17 09:11:59;;;;;;;14.30;7.18;;;1.00;99.90;;;;;;4886025;29;20024;-92
2021/12/17 09:14:25;;;;;;;23.17;8.43;;;1.10;99.90;;;;;;4885034;29;20047;-93
2021/12/17 09:16:51;;;;;;;24.88;9.60;;;1.10;99.90;;;;;;4890410;29;20084;-93
2021/12/17 09:19:17;;;;;;;24.02;10.60;;;1.10;99.90;;;;;;4883472;29;20060;-91
2021/12/17 09:21:43;;;;;;;22.30;9.57;;;1.10;99.90;;;;;;4883657;29;20082;-93
2021/12/17 09:24:10;;;;;;;23.08;9.15;;;1.10;99.90;;;;;;4883295;29;20029;-93
2021/12/17 09:26:36;;;;;;;29.75;8.93;;;1.10;99.90;;;;;;4883859;29;20088;-93
2021/12/17 09:29:02;;;;;;;31.13;9.98;;;1.20;99.90;;;;;;4880483;29;20029;-92
2021/12/17 09:31:28;;;;;;;32.78;8.75;;;1.20;99.90;;;;;;4872390;29;20664;-92
2021/12/17 09:33:53;;;;;;;24.13;9.30;;;1.30;99.90;;;;;;4879922;29;20045;-92
2021/12/17 09:36:20;;;;;;;33.47;8.57;;;1.30;99.90;;;;;;4864354;29;20074;-92
2021/12/17 09:38:52;;;;;;;18.33;8.38;;;1.40;99.90;;;;;;4878552;29;20070;-92
2021/12/17 09:41:23;;;;;;;26.48;9.32;;;1.40;99.90;;;;;;4881636;29;20100;-91
2021/12/17 09:43:49;;;;;;;46.75;9.15;;;1.40;99.90;;;;;;4879746;29;20028;-92
2021/12/17 09:46:16;;;;;;;35.70;8.90;;;1.50;99.90;;;;;;4881127;29;20035;-93
2021/12/17 09:48:47;;;;;;;45.58;7.55;;;1.60;99.90;;;;;;4881514;29;20103;-91
2021/12/17 09:51:15;;;;;;;17.27;7.47;;;1.60;99.90;;;;;;4879358;29;20475;-93
2021/12/17 09:53:41;;;;;;;19.65;8.93;;;1.60;99.90;;;;;;4881833;29;20057;-91
2021/12/17 09:56:07;;;;;;;18.98;9.60;;;1.70;99.90;;;;;;4882180;29;20029;-91
2021/12/17 09:58:34;;;;;;;21.15;9.73;;;1.80;99.90;;;;;;4881938;29;20025;-90
2021/12/17 10:01:00;;;;;;;18.38;8.90;;;1.90;99.90;;;;;;4881332;29;20101;-91
2021/12/17 10:03:27;;;;;;;19.85;9.20;;;2.10;99.90;;;;;;4880677;29;20020;-90
2021/12/17 10:05:52;;;;;;;21.60;8.80;;;2.20;99.90;;;;;;4880488;29;20146;-90
2021/12/17 10:08:22;;;;;;;21.58;8.77;;;2.40;99.90;;;;;;4882098;29;20063;-91
2021/12/17 10:10:58;;;;;;;23.30;9.65;;;2.50;99.90;;;;;;4882847;29;20025;-91
2021/12/17 10:13:26;;;;;;;17.70;8.77;;;2.70;99.90;;;;;;4881951;29;20070;-90
2021/12/17 10:15:56;;;;;;;17.77;8.38;;;2.90;99.90;;;;;;4881628;29;20028;-91
2021/12/17 10:18:36;;;;;;;20.73;7.65;;;3.20;99.90;;;;;;4881591;29;20032;-90
2021/12/17 10:21:06;;;;;;;20.45;9.23;;;3.50;99.90;;;;;;4879950;29;20419;-92
2021/12/17 10:23:33;;;;;;;16.13;8.00;;;3.80;99.90;;;;;;4881614;29;20033;-91
2021/12/17 10:26:00;;;;;;;14.55;7.75;;;4.10;99.90;;;;;;4881770;29;20273;-91
2021/12/17 10:28:27;;;;;;;18.77;7.60;;;4.50;99.90;;;;;;4884081;29;20052;-90
2021/12/17 10:30:55;;;;;;;15.68;6.97;;;4.90;99.90;;;;;;4884592;29;20017;-91
2021/12/17 10:33:24;;;;;;;15.93;7.45;;;5.10;99.90;;;;;;4881999;29;20475;-90
2021/12/17 10:35:52;;;;;;;13.68;6.75;;;5.40;99.90;;;;;;4881227;29;20546;-91
2021/12/17 10:38:25;;;;;;;13.80;7.22;;;5.80;99.90;;;;;;4879282;29;20044;-90
2021/12/17 10:41:03;;;;;;;17.08;8.02;;;6.00;99.90;;;;;;4880662;29;20471;-91
2021/12/17 10:43:37;;;;;;;19.88;8.38;;;6.20;99.90;;;;;;4880736;29;20032;-91
2021/12/17 10:46:25;;;;;;;18.92;8.60;;;6.40;99.90;;;;;;4880015;29;20028;-91
2021/12/17 10:54:09;;;;;;;22.33;10.13;;;7.00;99.90;;;;;;4899190;29;20546;-91
2021/12/17 10:56:41;;;;;;;23.45;10.00;;;7.20;99.90;;;;;;4888200;29;20036;-93
2021/12/17 10:59:30;;;;;;;18.17;9.82;;;7.40;99.90;;;;;;4886330;29;20020;-93
2021/12/17 11:02:05;;;;;;;19.33;9.75;;;7.70;99.90;;;;;;4886420;29;20063;-91
2021/12/17 11:04:33;;;;;;;19.15;9.98;;;7.80;99.90;;;;;;4888114;29;20043;-93
2021/12/17 11:07:13;;;;;;;21.30;9.55;;;8.00;99.90;;;;;;4887644;29;20103;-91
2021/12/17 11:09:46;;;;;;;22.05;9.10;;;8.20;99.90;;;;;;4889532;29;20065;-92
2021/12/17 11:12:15;;;;;;;18.40;9.63;;;8.50;99.90;;;;;;4888410;29;20549;-96
2021/12/17 11:14:41;;;;;;;22.23;9.32;;;8.70;99.90;;;;;;4887049;29;20040;-91
2021/12/17 11:17:10;;;;;;;19.63;8.23;;;8.80;99.90;;;;;;4890379;29;20017;-91
2021/12/17 11:19:37;;;;;;;18.75;9.45;;;9.00;99.90;;;;;;4887013;29;20110;-92
2021/12/17 11:22:03;;;;;;;18.90;8.98;;;9.20;99.90;;;;;;4892393;29;20024;-91
2021/12/17 11:24:32;;;;;;;24.02;8.73;;;9.40;99.90;;;;;;4894736;29;20065;-92
2021/12/17 11:26:59;;;;;;;15.07;8.02;;;9.50;99.90;;;;;;4891157;29;20052;-91
2021/12/17 11:29:26;;;;;;;19.30;8.65;;;9.60;99.90;;;;;;4889613;29;20151;-93
2021/12/17 11:31:52;;;;;;;17.20;8.63;;;9.80;99.90;;;;;;4892137;29;20028;-92
2021/12/17 11:34:18;;;;;;;15.30;8.98;;;9.90;99.90;;;;;;4889938;29;20045;-93
2021/12/17 11:36:45;;;;;;;22.60;10.95;;;10.10;99.90;;;;;;4890637;29;20040;-93
2021/12/17 11:39:22;;;;;;;15.98;8.35;;;10.40;99.90;;;;;;4889937;29;20032;-94
2021/12/17 11:42:29;;;;;;;16.50;7.95;;;10.60;99.90;;;;;;4889506;29;20038;-93
2021/12/17 11:47:46;;;;;;;;;;;11.00;98.60;;;;;;4867471;29;20403;-92
2021/12/17 11:50:16;;;;;;;19.63;8.23;;;11.30;97.90;;;;;;4866845;29;19942;-92
2021/12/17 11:52:47;;;;;;;19.35;7.03;;;11.50;97.30;;;;;;4853956;29;20030;-90
2021/12/17 11:55:55;;;;;;;23.60;7.88;;;11.80;96.40;;;;;;4857786;29;20466;-92
2021/12/17 11:58:44;;;;;;;20.80;7.40;;;12.00;95.10;;;;;;4787874;29;20054;-93
2021/12/17 12:01:10;;;;;;;16.77;7.43;;;12.20;94.30;;;;;;4790108;29;20043;-91
2021/12/17 12:03:36;;;;;;;20.55;7.47;;;12.40;93.90;;;;;;4763174;30;20071;-92
2021/12/17 12:06:01;;;;;;;20.40;8.00;;;12.50;93.30;;;;;;4763546;30;20043;-93
2021/12/17 12:08:56;;;;;;;20.55;7.05;;;12.70;92.80;;;;;;4793057;29;20054;-91
2021/12/17 12:11:28;;;;;;;16.50;7.05;;;12.80;92.10;;;;;;4774628;30;20489;-93
2021/12/17 12:13:55;;;;;;;24.20;7.03;;;13.10;91.70;;;;;;4779563;30;20052;-92
2021/12/17 12:16:25;;;;;;;14.95;7.07;;;13.20;91.20;;;;;;4765765;30;20059;-92
2021/12/17 12:19:07;;;;;;;22.15;7.13;;;13.30;90.80;;;;;;4783916;30;20036;-93
2021/12/17 12:21:38;;;;;;;19.50;6.63;;;13.50;90.20;;;;;;4788172;29;20047;-92
2021/12/17 12:24:15;;;;;;;18.77;7.68;;;13.70;89.60;;;;;;4813949;29;20070;-95
2021/12/17 12:26:44;;;;;;;24.55;8.27;;;13.90;88.60;;;;;;4814350;29;20042;-96
2021/12/17 12:29:25;;;;;;;19.27;7.97;;;14.00;87.70;;;;;;4788259;29;20035;-95
2021/12/17 12:32:01;;;;;;;;;;;14.00;86.80;;;;;;4822126;29;20041;-95
2021/12/17 12:35:00;;;;;;;17.05;7.13;;;14.20;86.40;;;;;;4881781;29;19916;-94
2021/12/17 12:37:36;;;;;;;23.05;7.28;;;14.20;86.00;;;;;;4881500;29;20116;-95
2021/12/17 12:40:16;;;;;;;22.70;7.07;;;14.40;85.30;;;;;;4881015;29;20522;-94
2021/12/17 12:46:53;;;;;;;18.60;6.80;;;14.80;82.90;;;;;;4881951;29;20043;-93
2021/12/17 12:49:51;;;;;;;23.80;8.30;;;15.00;82.10;;;;;;4874601;29;20515;-94
2021/12/17 12:52:47;;;;;;;17.15;6.93;;;15.10;81.50;;;;;;4881223;29;20025;-93
2021/12/17 12:55:27;;;;;;;16.42;6.43;;;15.20;80.70;;;;;;4880800;29;20086;-93
2021/12/17 12:58:02;;;;;;;21.92;6.65;;;15.40;80.00;;;;;;4880996;29;20025;-94
2021/12/17 13:00:50;;;;;;;18.80;7.13;;;15.40;79.50;;;;;;4881033;29;20551;-93
2021/12/17 13:03:32;;;;;;;;;;;;;;;;;;;;;
2021/12/17 13:06:28;;;;;;;18.38;7.00;;;15.50;78.60;;;;;;4884276;29;20128;-96
2021/12/17 13:08:55;;;;;;;15.90;6.57;;;15.50;78.30;;;;;;4881729;29;20085;-93
2021/12/17 13:11:45;;;;;;;18.45;7.57;;;15.30;78.00;;;;;;4880786;29;20033;-93
2021/12/17 13:14:18;;;;;;;25.95;7.10;;;14.80;79.00;;;;;;4879811;29;20037;-94
2021/12/17 13:20:14;;;;;;;22.25;7.50;;;14.10;79.60;;;;;;4881965;29;20062;-94
2021/12/17 13:20:42;;;;;;;21.98;7.10;;;13.30;80.90;;;;;;4882091;29;20037;-93
2021/12/17 13:23:18;;;;;;;18.40;6.93;;;12.40;82.70;;;;;;4881476;29;20041;-94
2021/12/17 13:25:44;;;;;;;27.42;7.28;;;11.70;84.50;;;;;;4880203;29;20480;-94
2021/12/17 13:28:10;;;;;;;17.70;6.35;;;11.20;86.00;;;;;;4880641;29;20040;-92
2021/12/17 13:30:36;;;;;;;19.38;7.78;;;10.80;87.50;;;;;;4881062;29;20124;-95
2021/12/17 13:33:02;;;;;;;15.70;6.97;;;10.40;89.20;;;;;;4883855;29;20365;-94
2021/12/17 13:35:33;;;;;;;19.45;6.68;;;10.10;90.40;;;;;;4881735;29;20037;-93
2021/12/17 13:38:01;;;;;;;10.07;5.80;;;9.90;91.50;;;;;;4880362;29;20136;-93
2021/12/17 13:40:28;;;;;;;12.13;6.13;;;9.70;92.40;;;;;;4880669;29;20056;-93
2021/12/17 13:42:55;;;;;;;14.00;6.88;;;9.60;93.30;;;;;;4880405;29;20446;-93
2021/12/17 13:45:22;;;;;;;14.75;6.30;;;9.50;94.10;;;;;;4880110;29;20032;-92
2021/12/17 13:47:50;;;;;;;20.52;7.35;;;9.20;94.70;;;;;;4879998;29;20032;-92
2021/12/17 13:50:40;;;;;;;13.02;7.10;;;9.10;95.50;;;;;;4879812;29;20025;-93
2021/12/17 13:53:14;;;;;;;16.17;8.18;;;9.00;96.50;;;;;;4887672;29;20025;-93
2021/12/17 13:56:29;;;;;;;19.10;7.93;;;8.90;97.20;;;;;;5046524;23;20047;-95
2021/12/17 13:59:00;;;;;;;18.23;9.07;;;8.80;98.10;;;;;;4923575;29;20505;-92
2021/12/17 14:01:26;;;;;;;17.40;8.43;;;8.80;98.80;;;;;;4918656;29;20040;-93
2021/12/17 14:03:52;;;;;;;19.35;8.85;;;8.80;99.50;;;;;;4918078;29;20028;-92
2021/12/17 14:06:24;;;;;;;16.77;9.48;;;8.70;99.90;;;;;;4921224;29;20024;-91
2021/12/17 14:08:53;;;;;;;21.80;10.82;;;8.60;99.90;;;;;;4917727;29;20028;-91
2021/12/17 14:11:28;;;;;;;20.73;10.60;;;8.60;99.90;;;;;;4917085;29;20490;-92
2021/12/17 14:13:54;;;;;;;23.27;11.90;;;8.60;99.90;;;;;;4917110;29;20043;-91
2021/12/17 14:16:31;;;;;;;22.70;12.68;;;8.50;99.90;;;;;;4916970;29;20028;-92
2021/12/17 14:19:52;;;;;;;;;;;;;;;;;;;;;
2021/12/17 14:22:32;;;;;;;24.20;11.77;;;8.30;99.90;;;;;;4918875;29;20020;-92
2021/12/17 14:24:59;;;;;;;27.80;13.85;;;8.30;99.90;;;;;;4917279;29;20024;-92
2021/12/17 14:27:45;;;;;;;22.58;12.73;;;8.20;99.90;;;;;;4917376;29;20199;-92
2021/12/17 14:30:11;;;;;;;24.63;13.48;;;8.20;99.90;;;;;;4915727;29;20505;-92
2021/12/17 14:32:45;;;;;;;29.73;13.85;;;8.20;99.90;;;;;;4903351;29;20068;-93
2021/12/17 14:35:11;;;;;;;27.58;13.15;;;8.10;99.90;;;;;;4903207;29;20090;-93
2021/12/17 14:37:51;;;;;;;29.05;14.48;;;8.10;99.90;;;;;;4902510;29;20035;-92
2021/12/17 14:40:35;;;;;;;23.38;12.02;;;8.00;99.90;;;;;;4902587;29;20212;-91
2021/12/17 14:43:00;;;;;;;25.95;12.68;;;8.00;99.90;;;;;;4901460;29;20036;-92
2021/12/17 14:45:40;;;;;;;26.33;13.60;;;7.90;99.90;;;;;;4901128;29;20042;-91
2021/12/17 14:48:26;;;;;;;23.35;11.98;;;7.90;99.90;;;;;;4902059;29;20390;-95
2021/12/17 15:04:46;;;;;;;26.17;13.70;;;7.60;99.90;;;;;;4878009;29;20032;-91
2021/12/17 15:07:12;;;;;;;33.35;14.57;;;7.60;99.90;;;;;;4877724;29;20041;-95
2021/12/17 15:09:46;;;;;;;33.22;15.57;;;7.70;99.90;;;;;;4863036;29;20060;-94
2021/12/17 15:12:36;;;;;;;35.15;16.92;;;7.60;99.90;;;;;;4862466;29;20025;-94
2021/12/17 15:15:06;;;;;;;37.90;16.40;;;7.60;99.90;;;;;;4877721;29;20037;-92
2021/12/17 15:17:32;;;;;;;35.60;16.27;;;7.60;99.90;;;;;;4862311;29;20030;-93
2021/12/17 15:19:59;;;;;;;37.80;17.30;;;7.60;99.90;;;;;;4862396;29;20073;-93
2021/12/17 15:22:25;;;;;;;35.58;18.80;;;7.60;99.90;;;;;;4863494;29;20127;-94
2021/12/17 15:24:51;;;;;;;35.17;16.38;;;7.50;99.90;;;;;;4877488;29;20033;-93
2021/12/17 15:27:16;;;;;;;38.78;16.88;;;7.50;99.90;;;;;;4862310;29;20031;-93
2021/12/17 15:29:42;;;;;;;33.53;14.93;;;7.50;99.90;;;;;;4862240;29;20048;-92
2021/12/17 15:32:08;;;;;;;37.45;17.17;;;7.50;99.90;;;;;;4861862;29;20028;-92
2021/12/17 15:34:34;;;;;;;40.47;16.98;;;7.50;99.90;;;;;;4862156;29;20406;-93
2021/12/17 15:36:59;;;;;;;38.38;16.70;;;7.40;99.90;;;;;;4861761;29;20060;-92
2021/12/17 15:39:27;;;;;;;34.40;15.70;;;7.30;99.90;;;;;;4880909;29;20137;-93
2021/12/17 15:41:53;;;;;;;37.75;16.33;;;7.30;99.90;;;;;;4885943;29;20036;-93
2021/12/17 15:44:19;;;;;;;40.80;17.38;;;7.20;99.90;;;;;;4904234;29;20028;-93
2021/12/17 15:46:50;;;;;;;41.47;17.60;;;7.20;99.90;;;;;;4904855;29;20028;-93
2021/12/17 15:49:16;;;;;;;39.30;16.33;;;7.20;99.90;;;;;;4904591;29;20051;-92
2021/12/17 15:51:42;;;;;;;41.25;17.20;;;7.20;99.90;;;;;;4905509;29;20050;-93
2021/12/17 15:54:08;;;;;;;37.90;16.95;;;7.20;99.90;;;;;;4905819;29;20478;-94
2021/12/17 15:56:34;;;;;;;34.72;16.33;;;7.10;99.90;;;;;;4909646;29;20056;-92
2021/12/17 15:59:01;;;;;;;36.50;15.35;;;7.10;99.90;;;;;;4923729;29;20031;-94
2021/12/17 16:01:27;;;;;;;38.17;16.75;;;7.10;99.90;;;;;;4915564;29;20367;-92
2021/12/17 16:03:53;;;;;;;42.65;16.85;;;7.00;99.90;;;;;;4918881;29;20043;-93
2021/12/17 16:06:20;;;;;;;38.70;15.57;;;7.00;99.90;;;;;;4916452;29;20024;-93